sensor_id;sensor_type;location;lat;lon;timestamp;temperature;humidity
67641;SHT31;54434;50.096;20.082;2023-05-07T00:00:43;10.39;82.61
67641;SHT31;54434;50.096;20.082;2023-05-07T00:03:24;10.36;82.61
67641;SHT31;54434;50.096;20.082;2023-05-07T00:06:01;10.34;82.61
67641;SHT31;54434;50.096;20.082;2023-05-07T00:08:38;10.33;82.63
67641;SHT31;54434;50.096;20.082;2023-05-07T00:11:15;10.30;82.74
67641;SHT31;54434;50.096;20.082;2023-05-07T00:13:51;10.28;82.84
67641;SHT31;54434;50.096;20.082;2023-05-07T00:16:28;10.28;82.97
67641;SHT31;54434;50.096;20.082;2023-05-07T00:19:05;10.27;82.91
67641;SHT31;54434;50.096;20.082;2023-05-07T00:21:41;10.27;82.91
67641;SHT31;54434;50.096;20.082;2023-05-07T00:24:18;10.27;82.91
67641;SHT31;54434;50.096;20.082;2023-05-07T00:26:54;10.24;82.83
67641;SHT31;54434;50.096;20.082;2023-05-07T00:29:30;10.23;82.90
67641;SHT31;54434;50.096;20.082;2023-05-07T00:32:08;10.21;82.90
67641;SHT31;54434;50.096;20.082;2023-05-07T00:34:45;10.19;82.95
67641;SHT31;54434;50.096;20.082;2023-05-07T00:37:22;10.18;83.00
67641;SHT31;54434;50.096;20.082;2023-05-07T00:39:59;10.18;83.07
67641;SHT31;54434;50.096;20.082;2023-05-07T00:42:39;10.16;83.21
67641;SHT31;54434;50.096;20.082;2023-05-07T00:45:19;10.14;83.26
67641;SHT31;54434;50.096;20.082;2023-05-07T00:47:57;10.12;83.24
67641;SHT31;54434;50.096;20.082;2023-05-07T00:50:36;10.09;83.30
67641;SHT31;54434;50.096;20.082;2023-05-07T00:53:12;10.08;83.32
67641;SHT31;54434;50.096;20.082;2023-05-07T00:55:49;10.03;83.32
67641;SHT31;54434;50.096;20.082;2023-05-07T00:58:26;10.01;83.30
67641;SHT31;54434;50.096;20.082;2023-05-07T01:01:03;9.99;83.25
67641;SHT31;54434;50.096;20.082;2023-05-07T01:03:39;9.99;83.23
67641;SHT31;54434;50.096;20.082;2023-05-07T01:06:17;9.95;83.21
67641;SHT31;54434;50.096;20.082;2023-05-07T01:08:57;9.94;83.25
67641;SHT31;54434;50.096;20.082;2023-05-07T01:11:36;9.90;83.22
67641;SHT31;54434;50.096;20.082;2023-05-07T01:14:14;9.87;83.20
67641;SHT31;54434;50.096;20.082;2023-05-07T01:16:52;9.87;83.20
67641;SHT31;54434;50.096;20.082;2023-05-07T01:19:30;9.84;83.30
67641;SHT31;54434;50.096;20.082;2023-05-07T01:22:09;9.81;83.32
67641;SHT31;54434;50.096;20.082;2023-05-07T01:24:53;9.79;83.43
67641;SHT31;54434;50.096;20.082;2023-05-07T01:27:32;9.77;83.49
67641;SHT31;54434;50.096;20.082;2023-05-07T01:30:11;9.75;83.51
67641;SHT31;54434;50.096;20.082;2023-05-07T01:32:50;9.70;83.68
67641;SHT31;54434;50.096;20.082;2023-05-07T01:35:34;9.64;83.72
67641;SHT31;54434;50.096;20.082;2023-05-07T01:38:14;9.61;83.71
67641;SHT31;54434;50.096;20.082;2023-05-07T01:40:51;9.57;83.85
67641;SHT31;54434;50.096;20.082;2023-05-07T01:43:30;9.50;83.97
67641;SHT31;54434;50.096;20.082;2023-05-07T01:46:08;9.48;83.88
67641;SHT31;54434;50.096;20.082;2023-05-07T01:48:46;9.43;84.01
67641;SHT31;54434;50.096;20.082;2023-05-07T01:51:25;9.38;84.05
67641;SHT31;54434;50.096;20.082;2023-05-07T01:54:03;9.36;83.99
67641;SHT31;54434;50.096;20.082;2023-05-07T01:56:40;9.35;84.05
67641;SHT31;54434;50.096;20.082;2023-05-07T01:59:20;9.34;84.09
67641;SHT31;54434;50.096;20.082;2023-05-07T02:01:57;9.33;84.07
67641;SHT31;54434;50.096;20.082;2023-05-07T02:04:34;9.26;84.07
67641;SHT31;54434;50.096;20.082;2023-05-07T02:07:10;9.22;84.04
67641;SHT31;54434;50.096;20.082;2023-05-07T02:09:47;9.17;84.00
67641;SHT31;54434;50.096;20.082;2023-05-07T02:12:24;9.15;83.96
67641;SHT31;54434;50.096;20.082;2023-05-07T02:15:00;9.12;84.02
67641;SHT31;54434;50.096;20.082;2023-05-07T02:17:59;9.09;84.02
67641;SHT31;54434;50.096;20.082;2023-05-07T02:20:38;9.06;84.11
67641;SHT31;54434;50.096;20.082;2023-05-07T02:23:14;9.04;84.10
67641;SHT31;54434;50.096;20.082;2023-05-07T02:25:51;9.02;84.17
67641;SHT31;54434;50.096;20.082;2023-05-07T02:28:27;9.00;84.21
67641;SHT31;54434;50.096;20.082;2023-05-07T02:31:08;8.99;84.24
67641;SHT31;54434;50.096;20.082;2023-05-07T02:33:44;8.98;84.23
67641;SHT31;54434;50.096;20.082;2023-05-07T02:36:21;8.97;84.21
67641;SHT31;54434;50.096;20.082;2023-05-07T02:39:06;8.99;84.21
67641;SHT31;54434;50.096;20.082;2023-05-07T02:41:42;9.00;84.22
67641;SHT31;54434;50.096;20.082;2023-05-07T02:44:19;8.99;84.23
67641;SHT31;54434;50.096;20.082;2023-05-07T02:46:55;8.97;84.18
67641;SHT31;54434;50.096;20.082;2023-05-07T02:49:32;8.96;84.05
67641;SHT31;54434;50.096;20.082;2023-05-07T02:52:10;8.94;84.00
67641;SHT31;54434;50.096;20.082;2023-05-07T02:54:47;8.92;83.92
67641;SHT31;54434;50.096;20.082;2023-05-07T02:57:23;8.92;83.85
67641;SHT31;54434;50.096;20.082;2023-05-07T03:00:06;8.90;83.79
67641;SHT31;54434;50.096;20.082;2023-05-07T03:02:55;8.85;83.70
67641;SHT31;54434;50.096;20.082;2023-05-07T03:05:33;8.83;83.69
67641;SHT31;54434;50.096;20.082;2023-05-07T03:08:09;8.82;83.63
67641;SHT31;54434;50.096;20.082;2023-05-07T03:10:46;8.80;83.56
67641;SHT31;54434;50.096;20.082;2023-05-07T03:13:23;8.79;83.53
67641;SHT31;54434;50.096;20.082;2023-05-07T03:16:00;8.76;83.50
67641;SHT31;54434;50.096;20.082;2023-05-07T03:18:37;8.76;83.41
67641;SHT31;54434;50.096;20.082;2023-05-07T03:21:14;8.76;83.34
67641;SHT31;54434;50.096;20.082;2023-05-07T03:23:50;8.77;83.40
67641;SHT31;54434;50.096;20.082;2023-05-07T03:26:26;8.74;83.39
67641;SHT31;54434;50.096;20.082;2023-05-07T03:29:02;8.74;83.38
67641;SHT31;54434;50.096;20.082;2023-05-07T03:31:39;8.72;83.40
67641;SHT31;54434;50.096;20.082;2023-05-07T03:34:15;8.72;83.45
67641;SHT31;54434;50.096;20.082;2023-05-07T03:36:54;8.70;83.54
67641;SHT31;54434;50.096;20.082;2023-05-07T03:39:30;8.68;83.49
67641;SHT31;54434;50.096;20.082;2023-05-07T03:42:08;8.66;83.47
67641;SHT31;54434;50.096;20.082;2023-05-07T03:44:44;8.61;83.34
67641;SHT31;54434;50.096;20.082;2023-05-07T03:47:21;8.55;83.43
67641;SHT31;54434;50.096;20.082;2023-05-07T03:49:58;8.53;83.49
67641;SHT31;54434;50.096;20.082;2023-05-07T03:52:35;8.51;83.53
67641;SHT31;54434;50.096;20.082;2023-05-07T03:55:12;8.48;83.53
67641;SHT31;54434;50.096;20.082;2023-05-07T03:57:53;8.45;83.54
67641;SHT31;54434;50.096;20.082;2023-05-07T04:00:30;8.42;83.57
67641;SHT31;54434;50.096;20.082;2023-05-07T04:03:17;8.41;83.61
67641;SHT31;54434;50.096;20.082;2023-05-07T04:05:54;8.41;83.55
67641;SHT31;54434;50.096;20.082;2023-05-07T04:08:30;8.41;83.52
67641;SHT31;54434;50.096;20.082;2023-05-07T04:11:07;8.40;83.50
67641;SHT31;54434;50.096;20.082;2023-05-07T04:13:44;8.40;83.54
67641;SHT31;54434;50.096;20.082;2023-05-07T04:16:21;8.39;83.54
67641;SHT31;54434;50.096;20.082;2023-05-07T04:18:58;8.40;83.46
67641;SHT31;54434;50.096;20.082;2023-05-07T04:21:34;8.39;83.26
67641;SHT31;54434;50.096;20.082;2023-05-07T04:24:11;8.39;83.14
67641;SHT31;54434;50.096;20.082;2023-05-07T04:26:49;8.40;83.11
67641;SHT31;54434;50.096;20.082;2023-05-07T04:29:27;8.37;83.12
67641;SHT31;54434;50.096;20.082;2023-05-07T04:32:04;8.35;83.09
67641;SHT31;54434;50.096;20.082;2023-05-07T04:34:41;8.35;83.06
67641;SHT31;54434;50.096;20.082;2023-05-07T04:37:18;8.32;82.92
67641;SHT31;54434;50.096;20.082;2023-05-07T04:39:55;8.34;82.87
67641;SHT31;54434;50.096;20.082;2023-05-07T04:42:32;8.34;82.82
67641;SHT31;54434;50.096;20.082;2023-05-07T04:45:10;8.32;82.77
67641;SHT31;54434;50.096;20.082;2023-05-07T04:47:47;8.34;82.85
67641;SHT31;54434;50.096;20.082;2023-05-07T04:50:23;8.34;82.83
67641;SHT31;54434;50.096;20.082;2023-05-07T04:53:01;8.32;82.69
67641;SHT31;54434;50.096;20.082;2023-05-07T04:55:38;8.30;82.38
67641;SHT31;54434;50.096;20.082;2023-05-07T04:58:15;8.27;82.42
67641;SHT31;54434;50.096;20.082;2023-05-07T05:00:51;8.26;82.54
67641;SHT31;54434;50.096;20.082;2023-05-07T05:03:28;8.23;82.57
67641;SHT31;54434;50.096;20.082;2023-05-07T05:06:05;8.24;82.58
67641;SHT31;54434;50.096;20.082;2023-05-07T05:08:42;8.22;82.63
67641;SHT31;54434;50.096;20.082;2023-05-07T05:11:19;8.21;82.74
67641;SHT31;54434;50.096;20.082;2023-05-07T05:13:56;8.16;82.97
67641;SHT31;54434;50.096;20.082;2023-05-07T05:16:33;8.14;82.89
67641;SHT31;54434;50.096;20.082;2023-05-07T05:19:10;8.12;82.77
67641;SHT31;54434;50.096;20.082;2023-05-07T05:21:48;8.11;82.81
67641;SHT31;54434;50.096;20.082;2023-05-07T05:24:24;8.08;82.87
67641;SHT31;54434;50.096;20.082;2023-05-07T05:27:01;8.05;82.93
67641;SHT31;54434;50.096;20.082;2023-05-07T05:29:37;8.05;82.97
67641;SHT31;54434;50.096;20.082;2023-05-07T05:32:14;8.03;82.99
67641;SHT31;54434;50.096;20.082;2023-05-07T05:34:51;8.01;83.01
67641;SHT31;54434;50.096;20.082;2023-05-07T05:37:27;8.00;83.09
67641;SHT31;54434;50.096;20.082;2023-05-07T05:40:06;7.99;83.11
67641;SHT31;54434;50.096;20.082;2023-05-07T05:42:44;7.93;83.03
67641;SHT31;54434;50.096;20.082;2023-05-07T05:45:21;7.87;83.06
67641;SHT31;54434;50.096;20.082;2023-05-07T05:48:00;7.84;83.04
67641;SHT31;54434;50.096;20.082;2023-05-07T05:50:37;7.79;83.00
67641;SHT31;54434;50.096;20.082;2023-05-07T05:53:14;7.75;83.06
67641;SHT31;54434;50.096;20.082;2023-05-07T05:55:51;7.67;83.11
67641;SHT31;54434;50.096;20.082;2023-05-07T05:58:28;7.62;83.23
67641;SHT31;54434;50.096;20.082;2023-05-07T06:01:07;7.59;83.24
67641;SHT31;54434;50.096;20.082;2023-05-07T06:03:43;7.58;83.31
67641;SHT31;54434;50.096;20.082;2023-05-07T06:06:20;7.56;83.28
67641;SHT31;54434;50.096;20.082;2023-05-07T06:08:58;7.56;83.20
67641;SHT31;54434;50.096;20.082;2023-05-07T06:11:40;7.57;83.18
67641;SHT31;54434;50.096;20.082;2023-05-07T06:14:16;7.57;83.10
67641;SHT31;54434;50.096;20.082;2023-05-07T06:16:53;7.58;83.17
67641;SHT31;54434;50.096;20.082;2023-05-07T06:19:30;7.60;83.12
67641;SHT31;54434;50.096;20.082;2023-05-07T06:22:07;7.58;82.97
67641;SHT31;54434;50.096;20.082;2023-05-07T06:24:44;7.61;82.98
67641;SHT31;54434;50.096;20.082;2023-05-07T06:27:20;7.64;82.91
67641;SHT31;54434;50.096;20.082;2023-05-07T06:29:57;7.66;82.70
67641;SHT31;54434;50.096;20.082;2023-05-07T06:32:34;7.70;82.55
67641;SHT31;54434;50.096;20.082;2023-05-07T06:35:11;7.73;82.40
67641;SHT31;54434;50.096;20.082;2023-05-07T06:37:47;7.75;82.22
67641;SHT31;54434;50.096;20.082;2023-05-07T06:40:28;7.77;81.96
67641;SHT31;54434;50.096;20.082;2023-05-07T06:43:05;7.80;81.84
67641;SHT31;54434;50.096;20.082;2023-05-07T06:46:17;7.84;81.60
67641;SHT31;54434;50.096;20.082;2023-05-07T06:48:54;7.89;81.43
67641;SHT31;54434;50.096;20.082;2023-05-07T06:51:31;7.95;81.04
67641;SHT31;54434;50.096;20.082;2023-05-07T06:54:08;7.99;80.93
67641;SHT31;54434;50.096;20.082;2023-05-07T06:56:45;8.03;80.87
67641;SHT31;54434;50.096;20.082;2023-05-07T06:59:22;8.07;80.86
67641;SHT31;54434;50.096;20.082;2023-05-07T07:01:59;8.07;80.59
67641;SHT31;54434;50.096;20.082;2023-05-07T07:04:36;8.10;80.88
67641;SHT31;54434;50.096;20.082;2023-05-07T07:07:14;8.09;80.95
67641;SHT31;54434;50.096;20.082;2023-05-07T07:09:52;8.08;80.98
67641;SHT31;54434;50.096;20.082;2023-05-07T07:12:28;8.07;80.99
67641;SHT31;54434;50.096;20.082;2023-05-07T07:15:06;8.09;81.07
67641;SHT31;54434;50.096;20.082;2023-05-07T07:17:44;8.10;81.25
67641;SHT31;54434;50.096;20.082;2023-05-07T07:20:21;8.10;81.02
67641;SHT31;54434;50.096;20.082;2023-05-07T07:22:58;8.11;80.47
67641;SHT31;54434;50.096;20.082;2023-05-07T07:25:34;8.13;80.68
67641;SHT31;54434;50.096;20.082;2023-05-07T07:28:11;8.16;80.30
67641;SHT31;54434;50.096;20.082;2023-05-07T07:30:48;8.15;79.98
67641;SHT31;54434;50.096;20.082;2023-05-07T07:33:24;8.14;79.63
67641;SHT31;54434;50.096;20.082;2023-05-07T07:36:01;8.16;79.64
67641;SHT31;54434;50.096;20.082;2023-05-07T07:38:38;8.17;79.50
67641;SHT31;54434;50.096;20.082;2023-05-07T07:41:15;8.15;79.58
67641;SHT31;54434;50.096;20.082;2023-05-07T07:43:51;8.14;79.86
67641;SHT31;54434;50.096;20.082;2023-05-07T07:46:28;8.14;79.87
67641;SHT31;54434;50.096;20.082;2023-05-07T07:49:04;8.12;80.02
67641;SHT31;54434;50.096;20.082;2023-05-07T07:51:40;8.10;80.08
67641;SHT31;54434;50.096;20.082;2023-05-07T07:54:17;8.07;80.13
67641;SHT31;54434;50.096;20.082;2023-05-07T07:56:53;8.06;80.18
67641;SHT31;54434;50.096;20.082;2023-05-07T07:59:30;8.03;80.25
67641;SHT31;54434;50.096;20.082;2023-05-07T08:02:07;7.99;80.26
67641;SHT31;54434;50.096;20.082;2023-05-07T08:04:44;7.96;80.28
67641;SHT31;54434;50.096;20.082;2023-05-07T08:07:21;7.94;80.10
67641;SHT31;54434;50.096;20.082;2023-05-07T08:09:59;7.91;80.11
67641;SHT31;54434;50.096;20.082;2023-05-07T08:12:36;7.87;80.18
67641;SHT31;54434;50.096;20.082;2023-05-07T08:15:13;7.86;80.35
67641;SHT31;54434;50.096;20.082;2023-05-07T08:17:51;7.86;80.34
67641;SHT31;54434;50.096;20.082;2023-05-07T08:20:29;7.85;80.05
67641;SHT31;54434;50.096;20.082;2023-05-07T08:23:12;7.86;80.16
67641;SHT31;54434;50.096;20.082;2023-05-07T08:25:49;7.80;79.96
67641;SHT31;54434;50.096;20.082;2023-05-07T08:28:27;7.77;79.99
67641;SHT31;54434;50.096;20.082;2023-05-07T08:31:03;7.76;80.28
67641;SHT31;54434;50.096;20.082;2023-05-07T08:33:41;7.76;80.14
67641;SHT31;54434;50.096;20.082;2023-05-07T08:36:18;7.73;79.92
67641;SHT31;54434;50.096;20.082;2023-05-07T08:38:54;7.72;80.07
67641;SHT31;54434;50.096;20.082;2023-05-07T08:41:32;7.71;80.01
67641;SHT31;54434;50.096;20.082;2023-05-07T08:44:11;7.72;79.96
67641;SHT31;54434;50.096;20.082;2023-05-07T08:46:50;7.72;80.11
67641;SHT31;54434;50.096;20.082;2023-05-07T08:49:30;7.74;79.91
67641;SHT31;54434;50.096;20.082;2023-05-07T08:52:08;7.72;79.79
67641;SHT31;54434;50.096;20.082;2023-05-07T08:54:46;7.72;79.79
67641;SHT31;54434;50.096;20.082;2023-05-07T08:57:23;7.74;79.94
67641;SHT31;54434;50.096;20.082;2023-05-07T09:00:00;7.74;79.78
67641;SHT31;54434;50.096;20.082;2023-05-07T09:02:39;7.73;79.73
67641;SHT31;54434;50.096;20.082;2023-05-07T09:05:17;7.70;79.70
67641;SHT31;54434;50.096;20.082;2023-05-07T09:07:54;7.65;79.66
67641;SHT31;54434;50.096;20.082;2023-05-07T09:10:35;7.70;79.97
67641;SHT31;54434;50.096;20.082;2023-05-07T09:13:13;7.76;79.96
67641;SHT31;54434;50.096;20.082;2023-05-07T09:15:50;7.80;79.94
67641;SHT31;54434;50.096;20.082;2023-05-07T09:18:27;7.82;80.02
67641;SHT31;54434;50.096;20.082;2023-05-07T09:21:04;7.85;80.04
67641;SHT31;54434;50.096;20.082;2023-05-07T09:23:44;7.88;80.09
67641;SHT31;54434;50.096;20.082;2023-05-07T09:26:24;7.89;79.71
67641;SHT31;54434;50.096;20.082;2023-05-07T09:29:00;7.91;79.60
67641;SHT31;54434;50.096;20.082;2023-05-07T09:31:39;7.97;79.37
67641;SHT31;54434;50.096;20.082;2023-05-07T09:34:17;8.01;79.25
67641;SHT31;54434;50.096;20.082;2023-05-07T09:36:54;8.03;79.04
67641;SHT31;54434;50.096;20.082;2023-05-07T09:39:41;8.07;79.22
67641;SHT31;54434;50.096;20.082;2023-05-07T09:42:25;8.07;78.98
67641;SHT31;54434;50.096;20.082;2023-05-07T09:45:07;8.06;78.93
67641;SHT31;54434;50.096;20.082;2023-05-07T09:47:46;8.06;78.96
67641;SHT31;54434;50.096;20.082;2023-05-07T09:50:29;8.10;79.12
67641;SHT31;54434;50.096;20.082;2023-05-07T09:53:14;8.11;78.80
67641;SHT31;54434;50.096;20.082;2023-05-07T09:55:53;8.09;78.89
67641;SHT31;54434;50.096;20.082;2023-05-07T09:58:35;8.08;79.01
67641;SHT31;54434;50.096;20.082;2023-05-07T10:01:19;8.08;79.00
67641;SHT31;54434;50.096;20.082;2023-05-07T10:04:01;8.05;78.87
67641;SHT31;54434;50.096;20.082;2023-05-07T10:06:40;8.03;78.93
67641;SHT31;54434;50.096;20.082;2023-05-07T10:09:17;8.00;78.74
67641;SHT31;54434;50.096;20.082;2023-05-07T10:11:55;7.99;78.77
67641;SHT31;54434;50.096;20.082;2023-05-07T10:14:34;7.97;78.80
67641;SHT31;54434;50.096;20.082;2023-05-07T10:17:13;7.95;78.80
67641;SHT31;54434;50.096;20.082;2023-05-07T10:19:52;7.95;78.85
67641;SHT31;54434;50.096;20.082;2023-05-07T10:22:29;7.96;78.67
67641;SHT31;54434;50.096;20.082;2023-05-07T10:25:17;7.95;78.53
67641;SHT31;54434;50.096;20.082;2023-05-07T10:28:01;7.94;78.61
67641;SHT31;54434;50.096;20.082;2023-05-07T10:30:52;7.91;78.40
67641;SHT31;54434;50.096;20.082;2023-05-07T10:33:45;7.94;78.56
67641;SHT31;54434;50.096;20.082;2023-05-07T10:36:25;8.00;78.77
67641;SHT31;54434;50.096;20.082;2023-05-07T10:39:02;8.05;78.49
67641;SHT31;54434;50.096;20.082;2023-05-07T10:41:42;8.09;78.38
67641;SHT31;54434;50.096;20.082;2023-05-07T10:44:28;8.13;78.27
67641;SHT31;54434;50.096;20.082;2023-05-07T10:47:10;8.14;78.03
67641;SHT31;54434;50.096;20.082;2023-05-07T10:50:25;8.11;77.81
67641;SHT31;54434;50.096;20.082;2023-05-07T10:53:24;8.16;77.76
67641;SHT31;54434;50.096;20.082;2023-05-07T10:56:36;8.17;77.29
67641;SHT31;54434;50.096;20.082;2023-05-07T10:59:37;8.15;77.08
67641;SHT31;54434;50.096;20.082;2023-05-07T11:02:21;8.23;77.47
67641;SHT31;54434;50.096;20.082;2023-05-07T11:05:42;8.34;77.60
67641;SHT31;54434;50.096;20.082;2023-05-07T11:08:24;8.36;77.25
67641;SHT31;54434;50.096;20.082;2023-05-07T11:11:20;8.33;76.92
67641;SHT31;54434;50.096;20.082;2023-05-07T11:14:45;8.32;76.93
67641;SHT31;54434;50.096;20.082;2023-05-07T11:17:27;8.27;76.87
67641;SHT31;54434;50.096;20.082;2023-05-07T11:20:11;8.27;77.01
67641;SHT31;54434;50.096;20.082;2023-05-07T11:22:55;8.26;77.20
67641;SHT31;54434;50.096;20.082;2023-05-07T11:25:47;8.32;77.40
67641;SHT31;54434;50.096;20.082;2023-05-07T11:28:32;8.34;77.12
67641;SHT31;54434;50.096;20.082;2023-05-07T11:31:14;8.33;77.00
67641;SHT31;54434;50.096;20.082;2023-05-07T11:33:58;8.41;76.77
67641;SHT31;54434;50.096;20.082;2023-05-07T11:36:40;8.56;76.62
67641;SHT31;54434;50.096;20.082;2023-05-07T11:39:27;8.64;75.72
67641;SHT31;54434;50.096;20.082;2023-05-07T11:42:06;8.64;75.57
67641;SHT31;54434;50.096;20.082;2023-05-07T11:45:00;8.69;75.88
67641;SHT31;54434;50.096;20.082;2023-05-07T11:47:41;8.74;75.47
67641;SHT31;54434;50.096;20.082;2023-05-07T11:50:18;8.67;74.73
67641;SHT31;54434;50.096;20.082;2023-05-07T11:52:55;8.64;75.34
67641;SHT31;54434;50.096;20.082;2023-05-07T11:55:31;8.62;75.74
67641;SHT31;54434;50.096;20.082;2023-05-07T11:58:08;8.59;75.61
67641;SHT31;54434;50.096;20.082;2023-05-07T12:00:53;8.53;75.24
67641;SHT31;54434;50.096;20.082;2023-05-07T12:03:31;8.50;75.05
67641;SHT31;54434;50.096;20.082;2023-05-07T12:06:10;8.53;75.16
67641;SHT31;54434;50.096;20.082;2023-05-07T12:08:48;8.54;75.18
67641;SHT31;54434;50.096;20.082;2023-05-07T12:11:26;8.56;75.54
67641;SHT31;54434;50.096;20.082;2023-05-07T12:14:03;8.58;75.59
67641;SHT31;54434;50.096;20.082;2023-05-07T12:16:43;8.50;75.25
67641;SHT31;54434;50.096;20.082;2023-05-07T12:19:23;8.41;75.66
67641;SHT31;54434;50.096;20.082;2023-05-07T12:22:00;8.31;75.48
67641;SHT31;54434;50.096;20.082;2023-05-07T12:24:46;8.24;75.65
67641;SHT31;54434;50.096;20.082;2023-05-07T12:27:30;8.20;75.71
67641;SHT31;54434;50.096;20.082;2023-05-07T12:30:13;8.22;75.67
67641;SHT31;54434;50.096;20.082;2023-05-07T12:32:53;8.27;75.25
67641;SHT31;54434;50.096;20.082;2023-05-07T12:35:31;8.38;74.83
67641;SHT31;54434;50.096;20.082;2023-05-07T12:38:14;8.44;74.68
67641;SHT31;54434;50.096;20.082;2023-05-07T12:40:53;8.49;74.88
67641;SHT31;54434;50.096;20.082;2023-05-07T12:43:30;8.49;74.70
67641;SHT31;54434;50.096;20.082;2023-05-07T12:46:07;8.43;74.52
67641;SHT31;54434;50.096;20.082;2023-05-07T12:48:46;8.40;74.53
67641;SHT31;54434;50.096;20.082;2023-05-07T12:51:22;8.39;74.75
67641;SHT31;54434;50.096;20.082;2023-05-07T12:54:00;8.41;74.86
67641;SHT31;54434;50.096;20.082;2023-05-07T12:56:39;8.46;74.57
67641;SHT31;54434;50.096;20.082;2023-05-07T12:59:15;8.50;74.60
67641;SHT31;54434;50.096;20.082;2023-05-07T13:01:52;8.52;74.66
67641;SHT31;54434;50.096;20.082;2023-05-07T13:04:29;8.51;74.58
67641;SHT31;54434;50.096;20.082;2023-05-07T13:07:07;8.51;74.60
67641;SHT31;54434;50.096;20.082;2023-05-07T13:09:44;8.50;73.92
67641;SHT31;54434;50.096;20.082;2023-05-07T13:12:21;8.46;73.67
67641;SHT31;54434;50.096;20.082;2023-05-07T13:14:58;8.40;73.41
67641;SHT31;54434;50.096;20.082;2023-05-07T13:17:34;8.33;73.46
67641;SHT31;54434;50.096;20.082;2023-05-07T13:20:12;8.30;73.88
67641;SHT31;54434;50.096;20.082;2023-05-07T13:22:49;8.31;74.41
67641;SHT31;54434;50.096;20.082;2023-05-07T13:25:26;8.29;74.25
67641;SHT31;54434;50.096;20.082;2023-05-07T13:28:03;8.31;74.51
67641;SHT31;54434;50.096;20.082;2023-05-07T13:30:42;8.31;74.07
67641;SHT31;54434;50.096;20.082;2023-05-07T13:33:19;8.27;73.77
67641;SHT31;54434;50.096;20.082;2023-05-07T13:35:55;8.30;74.03
67641;SHT31;54434;50.096;20.082;2023-05-07T13:38:32;8.34;74.25
67641;SHT31;54434;50.096;20.082;2023-05-07T13:41:09;8.37;74.27
67641;SHT31;54434;50.096;20.082;2023-05-07T13:43:46;8.40;74.25
67641;SHT31;54434;50.096;20.082;2023-05-07T13:46:23;8.39;74.40
67641;SHT31;54434;50.096;20.082;2023-05-07T13:48:59;8.41;74.31
67641;SHT31;54434;50.096;20.082;2023-05-07T13:51:36;8.40;74.16
67641;SHT31;54434;50.096;20.082;2023-05-07T13:54:13;8.37;73.78
67641;SHT31;54434;50.096;20.082;2023-05-07T13:56:49;8.36;74.00
67641;SHT31;54434;50.096;20.082;2023-05-07T13:59:27;8.34;73.54
67641;SHT31;54434;50.096;20.082;2023-05-07T14:02:04;8.31;73.34
67641;SHT31;54434;50.096;20.082;2023-05-07T14:04:41;8.31;73.51
67641;SHT31;54434;50.096;20.082;2023-05-07T14:07:18;8.38;73.94
67641;SHT31;54434;50.096;20.082;2023-05-07T14:09:56;8.38;73.91
67641;SHT31;54434;50.096;20.082;2023-05-07T14:12:35;8.34;74.08
67641;SHT31;54434;50.096;20.082;2023-05-07T14:15:12;8.31;73.97
67641;SHT31;54434;50.096;20.082;2023-05-07T14:17:50;8.25;74.00
67641;SHT31;54434;50.096;20.082;2023-05-07T14:20:27;8.23;74.25
67641;SHT31;54434;50.096;20.082;2023-05-07T14:23:04;8.21;74.31
67641;SHT31;54434;50.096;20.082;2023-05-07T14:25:40;8.16;74.22
67641;SHT31;54434;50.096;20.082;2023-05-07T14:28:19;8.13;74.18
67641;SHT31;54434;50.096;20.082;2023-05-07T14:30:56;8.13;74.41
67641;SHT31;54434;50.096;20.082;2023-05-07T14:33:34;8.12;74.44
67641;SHT31;54434;50.096;20.082;2023-05-07T14:36:13;8.10;74.67
67641;SHT31;54434;50.096;20.082;2023-05-07T14:38:51;8.10;74.88
67641;SHT31;54434;50.096;20.082;2023-05-07T14:41:31;8.09;74.96
67641;SHT31;54434;50.096;20.082;2023-05-07T14:44:08;8.07;75.16
67641;SHT31;54434;50.096;20.082;2023-05-07T14:46:45;8.06;75.09
67641;SHT31;54434;50.096;20.082;2023-05-07T14:49:21;7.99;74.95
67641;SHT31;54434;50.096;20.082;2023-05-07T14:51:59;7.97;75.03
67641;SHT31;54434;50.096;20.082;2023-05-07T14:54:38;7.92;75.01
67641;SHT31;54434;50.096;20.082;2023-05-07T14:57:15;7.87;75.21
67641;SHT31;54434;50.096;20.082;2023-05-07T14:59:52;7.84;75.04
67641;SHT31;54434;50.096;20.082;2023-05-07T15:02:28;7.82;75.33
67641;SHT31;54434;50.096;20.082;2023-05-07T15:05:08;7.82;75.59
67641;SHT31;54434;50.096;20.082;2023-05-07T15:07:46;7.80;75.73
67641;SHT31;54434;50.096;20.082;2023-05-07T15:10:23;7.78;75.69
67641;SHT31;54434;50.096;20.082;2023-05-07T15:13:00;7.73;75.79
67641;SHT31;54434;50.096;20.082;2023-05-07T15:15:37;7.71;75.77
67641;SHT31;54434;50.096;20.082;2023-05-07T15:18:15;7.70;75.96
67641;SHT31;54434;50.096;20.082;2023-05-07T15:20:54;7.68;75.93
67641;SHT31;54434;50.096;20.082;2023-05-07T15:23:33;7.64;75.93
67641;SHT31;54434;50.096;20.082;2023-05-07T15:26:10;7.61;76.03
67641;SHT31;54434;50.096;20.082;2023-05-07T15:28:46;7.61;76.37
67641;SHT31;54434;50.096;20.082;2023-05-07T15:31:23;7.64;76.59
67641;SHT31;54434;50.096;20.082;2023-05-07T15:34:02;7.64;76.86
67641;SHT31;54434;50.096;20.082;2023-05-07T15:36:40;7.65;77.04
67641;SHT31;54434;50.096;20.082;2023-05-07T15:39:16;7.66;77.20
67641;SHT31;54434;50.096;20.082;2023-05-07T15:41:55;7.70;77.24
67641;SHT31;54434;50.096;20.082;2023-05-07T15:44:33;7.68;76.77
67641;SHT31;54434;50.096;20.082;2023-05-07T15:47:10;7.66;76.84
67641;SHT31;54434;50.096;20.082;2023-05-07T15:49:47;7.66;77.02
67641;SHT31;54434;50.096;20.082;2023-05-07T15:52:24;7.64;76.77
67641;SHT31;54434;50.096;20.082;2023-05-07T15:55:01;7.63;76.71
67641;SHT31;54434;50.096;20.082;2023-05-07T15:57:38;7.60;76.85
67641;SHT31;54434;50.096;20.082;2023-05-07T16:00:16;7.59;76.90
67641;SHT31;54434;50.096;20.082;2023-05-07T16:02:54;7.60;76.80
67641;SHT31;54434;50.096;20.082;2023-05-07T16:05:31;7.61;76.86
67641;SHT31;54434;50.096;20.082;2023-05-07T16:08:08;7.57;76.54
67641;SHT31;54434;50.096;20.082;2023-05-07T16:10:46;7.58;76.67
67641;SHT31;54434;50.096;20.082;2023-05-07T16:13:23;7.57;76.65
67641;SHT31;54434;50.096;20.082;2023-05-07T16:16:01;7.61;76.77
67641;SHT31;54434;50.096;20.082;2023-05-07T16:18:40;7.62;76.59
67641;SHT31;54434;50.096;20.082;2023-05-07T16:21:20;7.59;76.63
67641;SHT31;54434;50.096;20.082;2023-05-07T16:23:57;7.58;76.80
67641;SHT31;54434;50.096;20.082;2023-05-07T16:26:34;7.57;76.98
67641;SHT31;54434;50.096;20.082;2023-05-07T16:29:12;7.55;77.01
67641;SHT31;54434;50.096;20.082;2023-05-07T16:31:48;7.51;77.33
67641;SHT31;54434;50.096;20.082;2023-05-07T16:34:27;7.47;77.24
67641;SHT31;54434;50.096;20.082;2023-05-07T16:37:05;7.42;77.17
67641;SHT31;54434;50.096;20.082;2023-05-07T16:39:42;7.38;77.35
67641;SHT31;54434;50.096;20.082;2023-05-07T16:42:19;7.37;77.49